Time;durP1;ratioP1;P1;durP2;ratioP2;P2;SDS_P1;SDS_P2;PMS_P1;PMS_P2;Temp;Humidity;BMP_temperature;BMP_pressure;BME280_temperature;BME280_humidity;BME280_pressure;Samples;Min_cycle;Max_cycle;Signal;HPM_P1;HPM_P2
2024/01/20 00:02:04;;;;;;;16.63;12.15;;;4.00;63.30;5.80;102332.00;;;;5032509;28;20227;-73
2024/01/20 00:04:32;;;;;;;18.75;12.23;;;4.00;63.40;5.80;102335.00;;;;5033403;28;20201;-73
2024/01/20 00:06:59;;;;;;;21.23;13.70;;;3.90;63.40;5.80;102341.00;;;;5032447;28;20667;-73
2024/01/20 00:09:26;;;;;;;23.80;14.18;;;3.90;63.30;5.80;102340.00;;;;5035050;28;20192;-72
2024/01/20 00:11:54;;;;;;;20.10;13.50;;;3.90;63.30;5.70;102341.00;;;;5034544;28;20197;-73
2024/01/20 00:14:21;;;;;;;22.45;14.23;;;3.90;63.40;5.70;102342.00;;;;5034947;28;20202;-73
2024/01/20 00:16:48;;;;;;;20.95;13.68;;;3.80;63.40;5.70;102334.00;;;;5037651;28;20192;-73
2024/01/20 00:19:15;;;;;;;21.70;14.27;;;3.80;63.30;5.70;102339.00;;;;5034672;28;20206;-73
2024/01/20 00:21:42;;;;;;;21.10;13.07;;;3.80;63.30;5.60;102338.00;;;;5032621;28;20231;-73
2024/01/20 00:24:09;;;;;;;21.58;14.20;;;3.80;63.40;5.60;102337.00;;;;5020227;28;20203;-73
2024/01/20 00:26:36;;;;;;;21.00;14.90;;;3.80;63.30;5.60;102341.00;;;;5032735;28;20216;-73
2024/01/20 00:29:06;;;;;;;22.30;14.50;;;3.80;63.30;5.60;102336.00;;;;5034163;28;20212;-73
2024/01/20 00:31:33;;;;;;;22.13;14.38;;;3.70;63.40;5.60;102346.00;;;;5035079;28;20232;-73
2024/01/20 00:34:00;;;;;;;25.50;14.55;;;3.70;63.40;5.60;102352.00;;;;5051727;28;20242;-73
2024/01/20 00:36:27;;;;;;;23.05;14.13;;;3.70;64.20;5.60;102343.00;;;;5038711;28;20291;-73
2024/01/20 00:38:54;;;;;;;22.92;14.25;;;3.70;63.60;5.60;102342.00;;;;5033291;28;20206;-73
2024/01/20 00:41:21;;;;;;;23.50;15.73;;;3.70;63.60;5.60;102343.00;;;;5033539;28;20224;-73
2024/01/20 00:43:48;;;;;;;24.75;13.98;;;3.70;63.60;5.50;102336.00;;;;5034098;28;20291;-73
2024/01/20 00:46:16;;;;;;;23.00;14.38;;;3.70;63.60;5.50;102337.00;;;;5033154;28;20212;-73
2024/01/20 00:48:43;;;;;;;28.27;16.35;;;3.70;63.60;5.50;102342.00;;;;5033676;28;20207;-73
2024/01/20 00:51:10;;;;;;;27.58;14.95;;;3.60;63.50;5.50;102337.00;;;;5050544;28;20214;-73
2024/01/20 00:53:37;;;;;;;26.27;15.38;;;3.60;63.50;5.50;102328.00;;;;5033797;28;20192;-72
2024/01/20 00:56:05;;;;;;;26.42;15.52;;;3.60;63.60;5.50;102329.00;;;;5019990;28;20660;-73
2024/01/20 00:58:32;;;;;;;29.17;16.10;;;3.60;63.60;5.50;102329.00;;;;5021968;28;20204;-73
2024/01/20 01:01:00;;;;;;;26.80;15.68;;;3.60;63.60;5.50;102331.00;;;;5020573;28;20656;-72
2024/01/20 01:03:28;;;;;;;26.63;14.60;;;3.60;63.60;5.50;102336.00;;;;5032866;28;20647;-73
2024/01/20 01:05:55;;;;;;;24.85;15.45;;;3.60;63.70;5.50;102344.00;;;;5029267;28;20197;-72
2024/01/20 01:08:22;;;;;;;25.95;15.00;;;3.60;63.70;5.50;102333.00;;;;5053017;28;20214;-73
2024/01/20 01:10:49;;;;;;;27.33;15.63;;;3.60;63.70;5.40;102331.00;;;;5043102;28;20653;-73
2024/01/20 01:13:16;;;;;;;30.83;16.20;;;3.50;63.70;5.50;102339.00;;;;5030306;28;20755;-73
2024/01/20 01:15:44;;;;;;;27.30;15.25;;;3.60;63.80;5.40;102340.00;;;;5032175;28;20212;-72
2024/01/20 01:18:11;;;;;;;26.70;14.88;;;3.60;63.80;5.40;102347.00;;;;5032653;28;20287;-73
2024/01/20 01:20:39;;;;;;;28.00;15.80;;;3.50;63.80;5.40;102342.00;;;;5032561;28;20676;-73
2024/01/20 01:23:06;;;;;;;26.38;15.23;;;3.50;63.80;5.40;102347.00;;;;5035024;28;20315;-72
2024/01/20 01:25:33;;;;;;;27.10;15.40;;;3.50;63.80;5.40;102344.00;;;;5035197;28;20199;-73
2024/01/20 01:28:01;;;;;;;29.90;15.77;;;3.60;63.90;5.40;102351.00;;;;5032046;28;20638;-73
2024/01/20 01:30:28;;;;;;;26.17;14.80;;;3.50;63.90;5.40;102349.00;;;;5032355;28;20205;-73
2024/01/20 01:32:55;;;;;;;30.88;16.23;;;3.50;63.90;5.40;102346.00;;;;5033772;28;20200;-73
2024/01/20 01:35:22;;;;;;;26.85;15.38;;;3.50;63.90;5.40;102351.00;;;;5033524;28;20646;-74
2024/01/20 01:37:51;;;;;;;27.30;15.15;;;3.50;63.90;5.40;102349.00;;;;5031956;28;20200;-73
2024/01/20 01:40:18;;;;;;;26.67;15.55;;;3.50;63.90;5.40;102355.00;;;;5035158;28;20290;-73
2024/01/20 01:42:45;;;;;;;30.67;15.93;;;3.50;63.90;5.40;102359.00;;;;5041883;28;20254;-73
2024/01/20 01:45:12;;;;;;;28.88;15.48;;;3.50;63.90;5.40;102360.00;;;;5033019;28;20199;-74
2024/01/20 01:47:40;;;;;;;29.92;15.60;;;3.50;63.90;5.30;102366.00;;;;5032163;28;20251;-73
2024/01/20 01:50:09;;;;;;;25.55;15.30;;;3.50;64.00;5.30;102367.00;;;;5031285;28;20255;-74
2024/01/20 01:52:36;;;;;;;29.02;14.52;;;3.40;64.00;5.40;102381.00;;;;5033113;28;20219;-74
2024/01/20 01:55:05;;;;;;;26.48;15.20;;;3.50;64.80;5.30;102370.00;;;;5032177;28;20200;-73
2024/01/20 01:57:35;;;;;;;26.65;16.73;;;3.40;64.00;5.30;102383.00;;;;5036730;28;20200;-73
2024/01/20 02:00:04;;;;;;;23.90;15.18;;;3.40;64.10;5.30;102364.00;;;;5035355;28;20740;-73
2024/01/20 02:02:31;;;;;;;29.70;15.18;;;3.40;64.00;5.30;102374.00;;;;5033001;28;20302;-73
2024/01/20 02:04:58;;;;;;;28.38;15.18;;;3.50;64.10;5.30;102378.00;;;;5031990;28;20258;-73
2024/01/20 02:07:27;;;;;;;26.35;14.70;;;3.40;64.00;5.30;102382.00;;;;5032679;28;20295;-74
2024/01/20 02:09:54;;;;;;;22.83;13.43;;;3.50;64.10;5.40;102376.00;;;;5031435;28;20200;-73
2024/01/20 02:12:24;;;;;;;26.38;15.13;;;3.50;64.20;5.40;102362.00;;;;5032939;28;20200;-73
2024/01/20 02:14:52;;;;;;;22.80;13.45;;;3.40;64.20;5.40;102363.00;;;;5037816;28;20201;-73
2024/01/20 02:17:19;;;;;;;25.20;13.98;;;3.40;64.20;5.40;102370.00;;;;5032633;28;20193;-73
2024/01/20 02:19:47;;;;;;;24.85;14.63;;;3.40;64.20;5.40;102364.00;;;;5022162;28;20656;-73
2024/01/20 02:22:17;;;;;;;25.10;14.77;;;3.40;64.20;5.40;102363.00;;;;5031441;28;20707;-73
2024/01/20 02:24:49;;;;;;;26.33;13.98;;;3.40;64.80;5.30;102362.00;;;;5029449;28;20283;-73
2024/01/20 02:27:16;;;;;;;25.70;15.10;;;3.40;64.00;5.40;102358.00;;;;5032427;28;20250;-73
2024/01/20 02:29:44;;;;;;;27.17;15.05;;;3.40;64.00;5.40;102363.00;;;;5032275;28;20226;-74
2024/01/20 02:32:11;;;;;;;23.55;13.80;;;3.40;64.00;5.40;102371.00;;;;5042764;28;20294;-74
2024/01/20 02:34:39;;;;;;;22.73;13.23;;;3.40;64.00;5.30;102373.00;;;;5045339;28;20291;-73
2024/01/20 02:37:08;;;;;;;24.63;13.57;;;3.40;64.00;5.30;102382.00;;;;5030506;28;20250;-73
2024/01/20 02:39:36;;;;;;;24.45;14.32;;;3.40;63.90;5.30;102388.00;;;;5031906;28;20769;-74
2024/01/20 02:42:08;;;;;;;25.42;14.35;;;3.40;64.00;5.30;102391.00;;;;5030848;28;20709;-74
2024/01/20 02:44:35;;;;;;;22.70;13.50;;;3.40;64.00;5.30;102393.00;;;;5031688;28;20196;-74
2024/01/20 02:47:02;;;;;;;22.77;12.82;;;3.40;64.10;5.30;102389.00;;;;5031309;28;20204;-74
2024/01/20 02:49:30;;;;;;;21.00;12.65;;;3.30;64.00;5.30;102389.00;;;;5036851;28;20201;-74
2024/01/20 02:51:57;;;;;;;22.52;13.48;;;3.30;64.00;5.30;102392.00;;;;5030336;28;20218;-74
2024/01/20 02:54:24;;;;;;;25.27;13.38;;;3.30;64.10;5.30;102393.00;;;;5030628;28;20291;-74
2024/01/20 02:57:11;;;;;;;24.58;13.70;;;3.40;64.20;5.10;102388.00;;;;5047222;22;20307;-76
2024/01/20 02:59:38;;;;;;;24.42;15.27;;;3.30;64.10;5.20;102384.00;;;;5027392;28;20200;-76
2024/01/20 03:02:05;;;;;;;24.83;14.80;;;3.40;64.00;5.20;102392.00;;;;5025708;28;20235;-76
2024/01/20 03:04:32;;;;;;;26.85;15.10;;;3.30;64.10;5.20;102393.00;;;;5029183;28;20283;-76
2024/01/20 03:06:59;;;;;;;24.08;13.98;;;3.30;64.10;5.20;102393.00;;;;5038714;28;20433;-76
2024/01/20 03:09:26;;;;;;;22.55;13.10;;;3.30;64.10;5.20;102389.00;;;;5028224;28;20200;-76
2024/01/20 03:11:53;;;;;;;23.25;13.18;;;3.30;64.20;5.20;102401.00;;;;5027130;28;20200;-76
2024/01/20 03:14:21;;;;;;;23.38;12.98;;;3.30;64.20;5.20;102394.00;;;;5027734;28;20223;-76
2024/01/20 03:16:48;;;;;;;23.95;14.82;;;3.30;64.30;5.20;102398.00;;;;5028275;28;20204;-76
2024/01/20 03:19:15;;;;;;;24.48;13.10;;;3.30;64.20;5.20;102390.00;;;;5027797;28;20280;-76
2024/01/20 03:21:42;;;;;;;20.38;12.40;;;3.30;64.20;5.20;102386.00;;;;5027276;28;20254;-76
2024/01/20 03:24:10;;;;;;;24.20;13.68;;;3.30;64.20;5.20;102393.00;;;;5040852;28;20654;-76
2024/01/20 03:26:38;;;;;;;24.42;13.35;;;3.30;64.20;5.20;102399.00;;;;5033282;28;20266;-76
2024/01/20 03:29:05;;;;;;;23.85;13.30;;;3.30;64.20;5.20;102396.00;;;;5033858;28;20663;-76
2024/01/20 03:31:33;;;;;;;20.92;11.15;;;3.30;64.20;5.20;102396.00;;;;5037731;28;20206;-76
2024/01/20 03:34:00;;;;;;;20.13;12.63;;;3.30;64.20;5.20;102407.00;;;;5030788;28;20207;-76
2024/01/20 03:36:27;;;;;;;22.27;13.05;;;3.30;64.20;5.20;102403.00;;;;5045120;28;20656;-76
2024/01/20 03:38:54;;;;;;;21.45;12.45;;;3.30;64.20;5.20;102411.00;;;;5028410;28;20200;-76
2024/01/20 03:41:21;;;;;;;22.73;13.23;;;3.30;64.90;5.20;102404.00;;;;5044188;28;20238;-76
2024/01/20 03:43:47;;;;;;;24.67;13.07;;;3.30;64.30;5.20;102406.00;;;;5047474;28;20226;-76
2024/01/20 03:46:18;;;;;;;22.85;13.00;;;3.30;64.20;5.20;102402.00;;;;5046601;28;20685;-76
2024/01/20 03:48:47;;;;;;;23.30;12.43;;;3.30;64.10;5.20;102396.00;;;;5025309;28;20952;-76
2024/01/20 03:51:14;;;;;;;20.83;11.73;;;3.30;64.20;5.20;102400.00;;;;5026366;28;20210;-76
2024/01/20 03:53:41;;;;;;;24.60;13.50;;;3.30;64.20;5.20;102406.00;;;;5027202;28;20208;-76
2024/01/20 03:56:08;;;;;;;21.90;12.32;;;3.20;64.20;5.20;102413.00;;;;5046603;28;20212;-76
2024/01/20 03:58:35;;;;;;;21.52;12.50;;;3.20;64.10;5.10;102415.00;;;;5025334;28;20224;-76
2024/01/20 04:01:02;;;;;;;22.42;12.38;;;3.20;64.20;5.10;102403.00;;;;5026209;28;20223;-76
2024/01/20 04:03:28;;;;;;;25.25;12.93;;;3.20;64.10;5.10;102408.00;;;;5027795;28;20279;-75
2024/01/20 04:05:57;;;;;;;24.58;13.32;;;3.20;64.10;5.10;102407.00;;;;5040933;28;20662;-76
2024/01/20 04:08:24;;;;;;;24.17;13.52;;;3.20;64.10;5.10;102412.00;;;;5041291;28;20212;-76
2024/01/20 04:10:51;;;;;;;23.15;12.57;;;3.20;64.20;5.10;102405.00;;;;5034664;28;20679;-75
2024/01/20 04:13:17;;;;;;;21.00;12.05;;;3.20;64.20;5.10;102409.00;;;;5034736;28;20216;-76
2024/01/20 04:15:44;;;;;;;19.05;11.85;;;3.20;64.30;5.10;102411.00;;;;5048343;28;20192;-75
2024/01/20 04:18:11;;;;;;;27.05;13.65;;;3.20;64.30;5.10;102415.00;;;;5031137;28;20208;-76
2024/01/20 04:20:38;;;;;;;22.02;12.55;;;3.20;64.30;5.00;102421.00;;;;5044154;28;20197;-76
2024/01/20 04:23:06;;;;;;;22.85;12.98;;;3.20;64.40;5.00;102420.00;;;;5034083;28;20231;-76
2024/01/20 04:25:33;;;;;;;22.10;12.57;;;3.20;64.40;5.00;102420.00;;;;5042215;28;20219;-76
2024/01/20 04:28:00;;;;;;;21.30;12.45;;;3.20;64.30;5.00;102415.00;;;;5040704;28;20208;-76
2024/01/20 04:30:27;;;;;;;23.90;13.30;;;3.10;64.30;5.00;102418.00;;;;5021034;28;20203;-76
2024/01/20 04:32:54;;;;;;;21.80;13.00;;;3.10;64.40;5.00;102422.00;;;;5031358;28;20195;-76
2024/01/20 04:35:21;;;;;;;21.02;12.60;;;3.10;64.50;5.00;102412.00;;;;5047214;28;20202;-76
2024/01/20 04:37:48;;;;;;;22.75;12.55;;;3.10;64.50;5.00;102416.00;;;;5048204;28;20744;-77
2024/01/20 04:40:16;;;;;;;20.60;11.85;;;3.10;64.50;5.00;102420.00;;;;5030105;28;20227;-76
2024/01/20 04:42:43;;;;;;;21.75;12.57;;;3.10;64.40;5.00;102428.00;;;;5032342;28;20220;-75
2024/01/20 04:45:13;;;;;;;21.60;12.45;;;3.10;64.50;5.00;102419.00;;;;5050717;28;20191;-76
2024/01/20 04:47:40;;;;;;;21.35;12.27;;;3.10;64.60;5.00;102418.00;;;;5038086;28;20199;-76
2024/01/20 04:50:08;;;;;;;27.35;12.85;;;3.10;64.60;5.00;102427.00;;;;5043459;28;20204;-76
2024/01/20 04:52:35;;;;;;;23.88;12.90;;;3.10;64.60;5.00;102429.00;;;;5045559;28;20199;-76
2024/01/20 04:55:02;;;;;;;24.13;13.30;;;3.10;64.60;5.00;102414.00;;;;5039036;28;20192;-75
2024/01/20 04:57:31;;;;;;;23.08;13.00;;;3.10;64.60;5.00;102429.00;;;;5030350;28;20232;-75
2024/01/20 04:59:58;;;;;;;20.58;11.80;;;3.10;64.60;5.00;102419.00;;;;5030854;28;20200;-74
2024/01/20 05:02:24;;;;;;;23.90;13.00;;;3.10;64.60;5.00;102426.00;;;;5030889;28;20721;-74
2024/01/20 05:04:51;;;;;;;17.35;11.27;;;3.10;64.70;5.00;102436.00;;;;5050578;28;20208;-75
2024/01/20 05:07:18;;;;;;;25.05;13.05;;;3.10;64.70;5.00;102441.00;;;;5042550;28;20678;-74
2024/01/20 05:09:45;;;;;;;21.40;12.60;;;3.10;64.60;5.00;102444.00;;;;5035213;28;20204;-75
2024/01/20 05:12:12;;;;;;;17.40;10.63;;;3.10;64.70;5.00;102444.00;;;;5030353;28;20196;-75
2024/01/20 05:14:41;;;;;;;23.35;12.57;;;3.10;64.60;5.00;102451.00;;;;5020434;28;20196;-75
2024/01/20 05:17:07;;;;;;;21.38;12.70;;;3.10;64.70;5.00;102457.00;;;;5036182;28;20570;-75
2024/01/20 05:19:39;;;;;;;20.33;12.30;;;3.10;64.60;5.00;102463.00;;;;5029587;28;20215;-74
2024/01/20 05:22:06;;;;;;;21.77;12.20;;;3.10;64.70;5.10;102457.00;;;;5040142;28;20223;-75
2024/01/20 05:24:33;;;;;;;22.02;12.43;;;3.10;64.70;5.10;102449.00;;;;5045732;28;20202;-75
2024/01/20 05:27:00;;;;;;;21.77;12.38;;;3.20;64.80;5.10;102462.00;;;;5046810;28;20215;-75
2024/01/20 05:29:28;;;;;;;20.88;12.25;;;3.20;64.80;5.10;102457.00;;;;5030323;28;20584;-75
2024/01/20 05:31:56;;;;;;;23.05;12.68;;;3.20;64.80;5.10;102455.00;;;;5044372;28;20561;-75
2024/01/20 05:34:23;;;;;;;21.23;12.30;;;3.20;64.80;5.10;102451.00;;;;5039556;28;20196;-75
2024/01/20 05:36:50;;;;;;;22.88;12.23;;;3.20;64.80;5.10;102455.00;;;;5040968;28;20262;-75
2024/01/20 05:39:17;;;;;;;21.15;11.85;;;3.20;64.80;5.10;102455.00;;;;5032969;28;20207;-75
2024/01/20 05:41:44;;;;;;;23.52;12.80;;;3.20;64.70;5.00;102442.00;;;;5042706;28;20584;-75
2024/01/20 05:44:11;;;;;;;19.85;11.68;;;3.20;64.70;5.00;102456.00;;;;5037470;28;20204;-75
2024/01/20 05:46:40;;;;;;;23.33;12.13;;;3.20;64.80;5.00;102462.00;;;;5048860;28;20239;-75
2024/01/20 05:49:08;;;;;;;22.02;12.82;;;3.20;64.80;5.00;102463.00;;;;5033931;28;20694;-74
2024/01/20 05:51:35;;;;;;;24.50;12.05;;;3.20;64.80;5.00;102459.00;;;;5043566;28;20214;-75
2024/01/20 05:54:02;;;;;;;17.80;10.95;;;3.20;64.80;5.10;102471.00;;;;5033156;28;20196;-74
2024/01/20 05:56:29;;;;;;;19.45;11.88;;;3.20;64.80;5.10;102462.00;;;;5045414;28;20191;-75
2024/01/20 05:58:56;;;;;;;21.95;12.40;;;3.20;64.80;5.10;102468.00;;;;5032696;28;20203;-75
2024/01/20 06:01:23;;;;;;;20.17;10.50;;;3.20;64.70;5.10;102460.00;;;;5020624;28;20200;-75
2024/01/20 06:03:50;;;;;;;18.42;11.07;;;3.20;64.70;5.10;102469.00;;;;5027648;28;20220;-76
2024/01/20 06:06:18;;;;;;;22.50;11.50;;;3.20;64.80;5.00;102467.00;;;;5025901;28;20805;-77
2024/01/20 06:08:46;;;;;;;18.77;10.63;;;3.20;64.80;5.10;102481.00;;;;5040834;28;20196;-74
2024/01/20 06:11:13;;;;;;;20.67;11.48;;;3.20;64.80;5.10;102485.00;;;;5043085;28;20200;-74
2024/01/20 06:13:40;;;;;;;21.15;10.38;;;3.20;64.80;5.10;102482.00;;;;5032165;28;20210;-74
2024/01/20 06:16:08;;;;;;;19.42;11.82;;;3.20;64.70;5.10;102486.00;;;;5035935;28;20204;-74
2024/01/20 06:18:35;;;;;;;22.45;11.63;;;3.20;64.70;5.10;102488.00;;;;5032297;28;20204;-74
2024/01/20 06:21:02;;;;;;;21.08;11.85;;;3.20;64.80;5.10;102484.00;;;;5049166;28;20215;-74
2024/01/20 06:23:31;;;;;;;21.13;11.90;;;3.20;64.80;5.00;102488.00;;;;5028146;28;20736;-74
2024/01/20 06:25:59;;;;;;;21.98;12.25;;;3.20;64.90;5.10;102484.00;;;;5037196;28;20222;-74
2024/01/20 06:28:26;;;;;;;21.30;11.77;;;3.20;64.90;5.10;102492.00;;;;5042944;28;20682;-74
2024/01/20 06:30:53;;;;;;;19.38;11.20;;;3.20;65.00;5.10;102490.00;;;;5029876;28;20596;-74
2024/01/20 06:33:20;;;;;;;19.48;11.02;;;3.20;65.00;5.10;102485.00;;;;5026472;28;20204;-76
2024/01/20 06:35:47;;;;;;;16.70;9.07;;;3.30;65.10;5.10;102486.00;;;;5029596;28;20208;-76
2024/01/20 06:38:14;;;;;;;20.00;11.13;;;3.20;64.90;5.10;102492.00;;;;5040195;28;20200;-75
2024/01/20 06:40:43;;;;;;;19.75;9.90;;;3.30;65.00;5.10;102483.00;;;;5048658;28;20239;-75
2024/01/20 06:43:10;;;;;;;20.17;10.77;;;3.30;65.00;5.10;102491.00;;;;5028213;28;20224;-75
2024/01/20 06:45:37;;;;;;;17.75;10.65;;;3.30;64.90;5.10;102484.00;;;;5028947;28;20558;-75
2024/01/20 06:48:05;;;;;;;19.23;10.57;;;3.30;64.80;5.10;102486.00;;;;5028613;28;20217;-75
2024/01/20 06:50:32;;;;;;;18.45;10.10;;;3.20;64.80;5.10;102476.00;;;;5026247;28;20250;-75
2024/01/20 06:52:59;;;;;;;19.67;9.77;;;3.20;64.70;5.10;102486.00;;;;5029169;28;20200;-75
2024/01/20 06:55:26;;;;;;;17.80;9.80;;;3.20;64.70;5.10;102488.00;;;;5027908;28;20196;-75
2024/01/20 06:57:54;;;;;;;16.70;9.63;;;3.20;64.70;5.00;102492.00;;;;5028410;28;20713;-74
2024/01/20 07:00:23;;;;;;;21.05;10.48;;;3.20;64.70;5.00;102497.00;;;;5022469;28;20427;-75
2024/01/20 07:02:50;;;;;;;14.43;8.70;;;3.20;64.80;5.00;102498.00;;;;5010604;28;20220;-75
2024/01/20 07:05:17;;;;;;;17.40;10.77;;;3.20;64.80;5.10;102493.00;;;;5027723;28;20216;-75
2024/01/20 07:07:43;;;;;;;15.45;9.73;;;3.20;64.80;5.10;102489.00;;;;5028294;28;20200;-75
2024/01/20 07:10:11;;;;;;;19.15;10.40;;;3.20;64.70;5.00;102487.00;;;;5027213;28;20208;-75
2024/01/20 07:12:38;;;;;;;17.05;9.57;;;3.20;64.70;5.00;102484.00;;;;5028685;28;20283;-75
2024/01/20 07:15:08;;;;;;;18.73;10.77;;;3.20;64.70;5.00;102493.00;;;;5008391;28;20251;-75
2024/01/20 07:17:35;;;;;;;17.70;10.05;;;3.20;64.80;5.00;102484.00;;;;5018567;28;20200;-75
2024/01/20 07:20:03;;;;;;;17.40;9.88;;;3.20;64.80;5.00;102490.00;;;;5027829;28;20192;-75
2024/01/20 07:22:31;;;;;;;19.35;9.68;;;3.20;64.80;5.00;102500.00;;;;5027060;28;20310;-75
2024/01/20 07:24:58;;;;;;;16.85;10.00;;;3.20;64.80;5.00;102498.00;;;;5027953;28;20655;-75
2024/01/20 07:27:25;;;;;;;18.05;10.43;;;3.20;64.80;5.00;102505.00;;;;5028312;28;20230;-75
2024/01/20 07:29:52;;;;;;;16.30;9.05;;;3.20;64.90;5.00;102505.00;;;;5027554;28;20200;-74
2024/01/20 07:32:20;;;;;;;16.83;10.20;;;3.20;64.90;5.00;102507.00;;;;5026757;28;20230;-77
2024/01/20 07:34:47;;;;;;;18.92;10.43;;;3.20;64.80;5.00;102499.00;;;;5043559;28;20250;-75
2024/01/20 07:37:14;;;;;;;19.38;10.35;;;3.20;64.90;5.00;102509.00;;;;5037451;28;20187;-75
2024/01/20 07:39:41;;;;;;;20.77;9.93;;;3.20;64.90;5.00;102512.00;;;;5046707;28;20215;-75
2024/01/20 07:42:08;;;;;;;17.85;9.57;;;3.20;64.90;5.00;102510.00;;;;5047432;28;20682;-75
2024/01/20 07:44:35;;;;;;;19.25;10.55;;;3.20;64.90;5.00;102523.00;;;;5046438;28;20203;-75
2024/01/20 07:47:03;;;;;;;18.80;10.02;;;3.20;64.90;5.00;102521.00;;;;5027074;28;20195;-75
2024/01/20 07:49:31;;;;;;;16.88;10.00;;;3.20;65.10;5.10;102520.00;;;;5025157;28;20208;-75
2024/01/20 07:51:58;;;;;;;23.30;11.95;;;3.20;65.00;5.10;102522.00;;;;5026808;28;20223;-75
2024/01/20 07:54:25;;;;;;;18.15;9.85;;;3.20;65.00;5.10;102528.00;;;;5027405;28;20573;-75
2024/01/20 07:56:52;;;;;;;20.45;11.57;;;3.20;65.10;5.10;102526.00;;;;5041551;28;20217;-75
2024/01/20 07:59:19;;;;;;;17.80;10.00;;;3.30;65.20;5.20;102530.00;;;;5032254;28;20200;-75
2024/01/20 08:01:46;;;;;;;17.70;10.85;;;3.30;65.20;5.20;102539.00;;;;5025047;28;20202;-75
2024/01/20 08:04:13;;;;;;;19.05;9.90;;;3.30;65.30;5.20;102534.00;;;;5045367;28;20223;-75
2024/01/20 08:06:41;;;;;;;16.90;9.85;;;3.30;65.30;5.30;102536.00;;;;5044387;28;20194;-75
2024/01/20 08:09:10;;;;;;;16.33;9.10;;;3.40;65.40;5.40;102537.00;;;;5026220;28;20192;-75
2024/01/20 08:11:37;;;;;;;15.88;8.98;;;3.40;65.40;5.40;102540.00;;;;5029265;28;20203;-75
2024/01/20 08:14:04;;;;;;;16.40;9.32;;;3.50;65.50;5.50;102531.00;;;;5036708;28;20192;-75
2024/01/20 08:16:31;;;;;;;17.15;9.27;;;3.50;65.60;5.50;102536.00;;;;5026799;28;20200;-75
2024/01/20 08:18:57;;;;;;;16.95;9.93;;;3.60;65.60;5.60;102526.00;;;;5029900;28;20227;-75
2024/01/20 08:21:25;;;;;;;17.25;9.23;;;3.60;65.50;5.70;102533.00;;;;5032392;28;20203;-75
2024/01/20 08:23:53;;;;;;;15.55;9.43;;;3.70;65.60;5.70;102524.00;;;;5043512;28;20232;-75
2024/01/20 08:26:20;;;;;;;17.45;9.32;;;3.70;65.60;5.80;102538.00;;;;5031590;28;20224;-75
2024/01/20 08:28:47;;;;;;;18.02;9.32;;;3.80;65.60;5.80;102549.00;;;;5030950;28;20219;-75
2024/01/20 08:31:14;;;;;;;18.05;9.85;;;3.90;65.70;5.90;102545.00;;;;5028445;28;20188;-75
2024/01/20 08:33:42;;;;;;;18.55;9.77;;;3.90;65.70;5.90;102549.00;;;;5022682;28;20196;-75
2024/01/20 08:36:09;;;;;;;14.90;9.38;;;4.00;65.70;6.00;102539.00;;;;5027751;28;20197;-75
2024/01/20 08:38:37;;;;;;;16.30;9.27;;;4.00;65.70;6.00;102540.00;;;;5038167;28;20211;-75
2024/01/20 08:41:10;;;;;;;14.90;9.02;;;4.10;65.70;6.00;102542.00;;;;5030508;28;20296;-75
2024/01/20 08:43:39;;;;;;;16.05;8.77;;;4.10;65.60;6.10;102554.00;;;;5041777;28;20223;-75
2024/01/20 08:46:06;;;;;;;15.85;9.10;;;4.20;65.50;6.10;102554.00;;;;5030683;28;20203;-75
2024/01/20 08:48:33;;;;;;;14.68;8.10;;;4.20;65.50;6.20;102547.00;;;;5039589;28;20649;-75
2024/01/20 08:51:00;;;;;;;18.02;9.27;;;4.20;65.50;6.20;102564.00;;;;5036195;28;20212;-75
2024/01/20 08:53:28;;;;;;;18.88;9.57;;;4.30;65.40;6.20;102564.00;;;;5040897;28;20203;-75
2024/01/20 08:55:55;;;;;;;16.65;9.32;;;4.30;65.40;6.30;102559.00;;;;5045707;28;20191;-75
2024/01/20 08:58:23;;;;;;;15.95;9.25;;;4.40;65.40;6.30;102578.00;;;;5030383;28;20698;-75
2024/01/20 09:00:50;;;;;;;15.93;8.85;;;4.40;65.50;6.30;102576.00;;;;5029067;28;20219;-75
2024/01/20 09:03:17;;;;;;;15.80;9.00;;;4.50;65.50;6.40;102572.00;;;;5028878;28;20278;-75
2024/01/20 09:05:46;;;;;;;15.00;9.07;;;4.40;65.40;6.40;102581.00;;;;5031134;28;20200;-75
2024/01/20 09:08:13;;;;;;;17.10;9.07;;;4.50;65.40;6.40;102590.00;;;;5023539;28;20223;-75
2024/01/20 09:10:40;;;;;;;19.88;10.35;;;4.50;65.40;6.50;102588.00;;;;5020186;28;20603;-75
2024/01/20 09:13:08;;;;;;;15.95;8.88;;;4.60;65.40;6.50;102582.00;;;;5021926;28;20204;-75
2024/01/20 09:15:36;;;;;;;15.10;8.43;;;4.60;65.40;6.50;102589.00;;;;5024308;28;20246;-75
2024/01/20 09:18:03;;;;;;;14.70;8.55;;;4.60;65.40;6.50;102585.00;;;;5026534;28;20671;-76
2024/01/20 09:20:30;;;;;;;15.45;9.80;;;4.60;65.30;6.60;102587.00;;;;5024716;28;20196;-76
2024/01/20 09:22:57;;;;;;;17.40;9.52;;;4.70;65.30;6.60;102578.00;;;;5027392;28;20224;-76
2024/01/20 09:25:24;;;;;;;15.63;8.65;;;4.70;65.20;6.60;102589.00;;;;5027494;28;20207;-76
2024/01/20 09:27:52;;;;;;;17.92;9.90;;;4.70;65.20;6.60;102595.00;;;;5026561;28;20570;-76
2024/01/20 09:30:19;;;;;;;15.73;8.68;;;4.80;65.20;6.60;102587.00;;;;5026157;28;20219;-77
2024/01/20 09:32:47;;;;;;;15.85;8.65;;;4.80;65.20;6.70;102597.00;;;;5027425;28;20574;-75
2024/01/20 09:35:15;;;;;;;14.90;8.88;;;4.80;65.20;6.70;102602.00;;;;5026573;28;20192;-75
2024/01/20 09:37:42;;;;;;;15.07;8.48;;;4.80;65.20;6.70;102604.00;;;;5036988;28;20632;-76
2024/01/20 09:40:12;;;;;;;15.23;9.48;;;4.80;65.20;6.80;102612.00;;;;5030427;28;20196;-75
2024/01/20 09:42:40;;;;;;;14.15;8.27;;;4.90;65.30;6.80;102612.00;;;;5029882;28;20735;-75
2024/01/20 09:45:08;;;;;;;17.67;8.80;;;4.90;65.30;6.90;102612.00;;;;5027606;28;20255;-76
2024/01/20 09:47:35;;;;;;;15.93;9.88;;;4.90;65.30;6.90;102603.00;;;;5030231;28;20197;-76
2024/01/20 09:50:05;;;;;;;16.08;9.70;;;5.00;65.40;6.90;102607.00;;;;5026831;28;20196;-76
2024/01/20 09:52:32;;;;;;;15.07;9.50;;;5.00;65.40;7.00;102609.00;;;;5026044;28;20188;-76
2024/01/20 09:55:21;;;;;;;15.60;9.75;;;5.10;65.30;7.00;102609.00;;;;5027730;28;20631;-76
2024/01/20 09:57:50;;;;;;;16.70;9.75;;;5.10;65.30;7.10;102608.00;;;;5022216;28;20574;-76
2024/01/20 10:00:20;;;;;;;14.75;10.05;;;5.20;65.30;7.10;102616.00;;;;5026995;28;20211;-78
2024/01/20 10:02:48;;;;;;;15.30;9.45;;;5.20;65.10;7.10;102619.00;;;;5028710;28;20196;-77
2024/01/20 10:05:17;;;;;;;15.10;9.73;;;5.20;65.10;7.20;102628.00;;;;5027644;28;20208;-78
2024/01/20 10:07:44;;;;;;;17.83;10.02;;;5.20;65.00;7.20;102621.00;;;;5029604;28;20680;-78
2024/01/20 10:10:21;;;;;;;16.92;10.80;;;5.30;65.00;7.20;102623.00;;;;5028821;28;20580;-80
2024/01/20 10:12:50;;;;;;;17.50;10.02;;;5.30;65.00;7.30;102611.00;;;;5025817;28;20211;-78
2024/01/20 10:15:22;;;;;;;20.30;11.77;;;5.30;65.00;7.30;102612.00;;;;5027657;28;20589;-80
2024/01/20 10:17:49;;;;;;;18.88;11.23;;;5.40;65.00;7.40;102609.00;;;;5029183;28;20212;-78
2024/01/20 10:20:22;;;;;;;15.68;10.10;;;5.40;65.00;7.30;102623.00;;;;5027747;28;20670;-78
2024/01/20 10:22:50;;;;;;;18.10;10.68;;;5.40;64.90;7.40;102633.00;;;;5027282;28;20215;-79
2024/01/20 10:25:19;;;;;;;16.13;10.13;;;5.50;65.00;7.50;102624.00;;;;5024779;28;20235;-78
2024/01/20 10:27:47;;;;;;;13.68;9.45;;;5.50;65.00;7.50;102623.00;;;;5029418;28;20201;-79
2024/01/20 10:30:16;;;;;;;15.65;9.10;;;5.60;65.10;7.60;102633.00;;;;5025833;28;20200;-78
2024/01/20 10:32:45;;;;;;;17.00;9.77;;;5.60;65.00;7.60;102633.00;;;;5027728;28;20201;-80
2024/01/20 10:35:12;;;;;;;16.52;10.32;;;5.70;65.00;7.70;102640.00;;;;5026964;28;20188;-79
2024/01/20 10:37:44;;;;;;;15.52;9.85;;;5.70;64.90;7.70;102641.00;;;;5027228;28;20646;-79
2024/01/20 10:40:14;;;;;;;14.82;9.32;;;5.80;65.00;7.80;102635.00;;;;5037327;28;20678;-79
2024/01/20 10:42:45;;;;;;;19.45;10.25;;;5.80;64.80;7.80;102639.00;;;;5029784;28;20681;-78
2024/01/20 10:45:17;;;;;;;17.35;10.82;;;5.80;64.80;7.90;102643.00;;;;5023601;28;20216;-79
2024/01/20 10:48:04;;;;;;;16.55;10.05;;;5.90;64.70;7.90;102643.00;;;;5028938;28;20200;-79
2024/01/20 10:50:32;;;;;;;16.00;9.98;;;6.00;64.70;8.00;102630.00;;;;5027399;28;20223;-79
2024/01/20 10:53:00;;;;;;;16.45;9.55;;;6.00;64.50;8.00;102633.00;;;;5039294;28;20188;-79